Hayes Center, Nebraska
Current Conditions -  °F | °C
As of 8:53 AM on Thursday 18 Dec 2014 (Local Time) from KIML Reporting Station
Haze Haze  
Wind Chill: 25°   Ceiling: 400
Heat Index: 25°   Visibility: 4mi
Dew Point: 23°   Wind: 0mph
Humidity: 92%   Direction: NA
Pressure: 30.09"   Gusts: NA
Location:  40.51°N, 101.02°W
Report Text: KIML 181453Z AUTO 00000KT 4SM BR OVC004 M04/M05 A3009 RMK AO2 SLP224 T10391050 51012
Loading
Personal Weather Stations






























Interactive Weather Map New forecast layout! Learn more

10-Day Weather Forecast

Advertisements
Track Severe Weather on mobile